sensor_id;sensor_type;location;lat;lon;timestamp;P1;durP1;ratioP1;P2;durP2;ratioP2
22282;SDS011;11310;51.528;21.204;2023-07-16T00:01:03;7.90;;;3.90;;
22282;SDS011;11310;51.528;21.204;2023-07-16T00:03:32;6.50;;;3.50;;
22282;SDS011;11310;51.528;21.204;2023-07-16T00:06:01;7.13;;;3.42;;
22282;SDS011;11310;51.528;21.204;2023-07-16T00:08:30;7.57;;;3.53;;
22282;SDS011;11310;51.528;21.204;2023-07-16T00:10:59;10.10;;;3.67;;
22282;SDS011;11310;51.528;21.204;2023-07-16T00:13:28;9.85;;;4.20;;
22282;SDS011;11310;51.528;21.204;2023-07-16T00:15:56;7.38;;;3.97;;
22282;SDS011;11310;51.528;21.204;2023-07-16T00:18:26;7.70;;;3.92;;
22282;SDS011;11310;51.528;21.204;2023-07-16T00:20:56;7.57;;;4.10;;
22282;SDS011;11310;51.528;21.204;2023-07-16T00:23:25;7.00;;;3.78;;
22282;SDS011;11310;51.528;21.204;2023-07-16T00:25:54;6.25;;;3.50;;
22282;SDS011;11310;51.528;21.204;2023-07-16T00:28:22;9.20;;;4.20;;
22282;SDS011;11310;51.528;21.204;2023-07-16T00:30:51;6.60;;;3.72;;
22282;SDS011;11310;51.528;21.204;2023-07-16T00:33:19;8.80;;;3.78;;
22282;SDS011;11310;51.528;21.204;2023-07-16T00:35:50;7.13;;;4.00;;
22282;SDS011;11310;51.528;21.204;2023-07-16T00:38:19;7.05;;;4.05;;
22282;SDS011;11310;51.528;21.204;2023-07-16T00:40:49;6.82;;;3.70;;
22282;SDS011;11310;51.528;21.204;2023-07-16T00:43:18;7.45;;;4.22;;
22282;SDS011;11310;51.528;21.204;2023-07-16T00:45:46;8.35;;;4.18;;
22282;SDS011;11310;51.528;21.204;2023-07-16T00:48:15;7.50;;;4.13;;
22282;SDS011;11310;51.528;21.204;2023-07-16T00:50:44;7.38;;;4.18;;
22282;SDS011;11310;51.528;21.204;2023-07-16T00:53:14;7.63;;;4.03;;
22282;SDS011;11310;51.528;21.204;2023-07-16T00:55:43;7.90;;;4.47;;
22282;SDS011;11310;51.528;21.204;2023-07-16T00:58:12;6.00;;;3.83;;
22282;SDS011;11310;51.528;21.204;2023-07-16T01:00:41;6.85;;;3.78;;
22282;SDS011;11310;51.528;21.204;2023-07-16T01:03:11;7.43;;;3.67;;
22282;SDS011;11310;51.528;21.204;2023-07-16T01:05:43;5.93;;;3.90;;
22282;SDS011;11310;51.528;21.204;2023-07-16T01:08:21;7.85;;;4.22;;
22282;SDS011;11310;51.528;21.204;2023-07-16T01:10:59;8.68;;;4.03;;
22282;SDS011;11310;51.528;21.204;2023-07-16T01:13:32;7.22;;;3.95;;
22282;SDS011;11310;51.528;21.204;2023-07-16T01:16:01;8.73;;;4.15;;
22282;SDS011;11310;51.528;21.204;2023-07-16T01:18:30;7.20;;;4.10;;
22282;SDS011;11310;51.528;21.204;2023-07-16T01:20:59;9.27;;;4.80;;
22282;SDS011;11310;51.528;21.204;2023-07-16T01:23:43;10.63;;;4.50;;
22282;SDS011;11310;51.528;21.204;2023-07-16T01:26:39;6.63;;;4.03;;
22282;SDS011;11310;51.528;21.204;2023-07-16T01:29:28;6.47;;;4.20;;
22282;SDS011;11310;51.528;21.204;2023-07-16T01:31:59;6.57;;;3.88;;
22282;SDS011;11310;51.528;21.204;2023-07-16T01:34:31;7.32;;;4.10;;
22282;SDS011;11310;51.528;21.204;2023-07-16T01:37:02;7.50;;;4.05;;
22282;SDS011;11310;51.528;21.204;2023-07-16T01:39:31;6.85;;;4.20;;
22282;SDS011;11310;51.528;21.204;2023-07-16T01:42:01;8.65;;;4.30;;
22282;SDS011;11310;51.528;21.204;2023-07-16T01:44:31;7.28;;;4.25;;
22282;SDS011;11310;51.528;21.204;2023-07-16T01:47:05;8.63;;;4.23;;
22282;SDS011;11310;51.528;21.204;2023-07-16T01:49:37;8.25;;;4.85;;
22282;SDS011;11310;51.528;21.204;2023-07-16T01:52:05;6.57;;;4.22;;
22282;SDS011;11310;51.528;21.204;2023-07-16T01:54:35;7.15;;;4.53;;
22282;SDS011;11310;51.528;21.204;2023-07-16T01:57:04;7.35;;;4.15;;
22282;SDS011;11310;51.528;21.204;2023-07-16T01:59:35;9.60;;;4.13;;
22282;SDS011;11310;51.528;21.204;2023-07-16T02:02:04;10.10;;;4.22;;
22282;SDS011;11310;51.528;21.204;2023-07-16T02:04:33;10.02;;;5.13;;
22282;SDS011;11310;51.528;21.204;2023-07-16T02:07:02;8.73;;;4.78;;
22282;SDS011;11310;51.528;21.204;2023-07-16T02:09:33;9.20;;;4.80;;
22282;SDS011;11310;51.528;21.204;2023-07-16T02:12:03;7.05;;;4.35;;
22282;SDS011;11310;51.528;21.204;2023-07-16T02:14:32;10.20;;;4.50;;
22282;SDS011;11310;51.528;21.204;2023-07-16T02:17:03;8.27;;;4.63;;
22282;SDS011;11310;51.528;21.204;2023-07-16T02:19:32;8.40;;;4.30;;
22282;SDS011;11310;51.528;21.204;2023-07-16T02:22:01;8.65;;;4.78;;
22282;SDS011;11310;51.528;21.204;2023-07-16T02:24:30;7.82;;;4.25;;
22282;SDS011;11310;51.528;21.204;2023-07-16T02:26:58;7.95;;;4.93;;
22282;SDS011;11310;51.528;21.204;2023-07-16T02:29:27;7.57;;;4.68;;
22282;SDS011;11310;51.528;21.204;2023-07-16T02:31:56;10.55;;;4.80;;
22282;SDS011;11310;51.528;21.204;2023-07-16T02:34:26;10.70;;;4.68;;
22282;SDS011;11310;51.528;21.204;2023-07-16T02:36:54;10.25;;;5.10;;
22282;SDS011;11310;51.528;21.204;2023-07-16T02:39:23;9.15;;;5.05;;
22282;SDS011;11310;51.528;21.204;2023-07-16T02:41:52;7.90;;;4.63;;
22282;SDS011;11310;51.528;21.204;2023-07-16T02:44:21;9.35;;;5.40;;
22282;SDS011;11310;51.528;21.204;2023-07-16T02:46:50;7.53;;;4.53;;
22282;SDS011;11310;51.528;21.204;2023-07-16T02:49:20;10.13;;;4.82;;
22282;SDS011;11310;51.528;21.204;2023-07-16T02:51:50;9.50;;;4.95;;
22282;SDS011;11310;51.528;21.204;2023-07-16T02:54:19;10.65;;;4.65;;
22282;SDS011;11310;51.528;21.204;2023-07-16T02:56:48;8.27;;;4.43;;
22282;SDS011;11310;51.528;21.204;2023-07-16T02:59:17;8.95;;;4.63;;
22282;SDS011;11310;51.528;21.204;2023-07-16T03:01:46;8.15;;;4.75;;
22282;SDS011;11310;51.528;21.204;2023-07-16T03:04:14;8.73;;;4.30;;
22282;SDS011;11310;51.528;21.204;2023-07-16T03:06:43;8.00;;;4.78;;
22282;SDS011;11310;51.528;21.204;2023-07-16T03:09:13;9.25;;;5.20;;
22282;SDS011;11310;51.528;21.204;2023-07-16T03:11:42;7.90;;;4.72;;
22282;SDS011;11310;51.528;21.204;2023-07-16T03:14:11;9.80;;;5.05;;
22282;SDS011;11310;51.528;21.204;2023-07-16T03:16:40;9.10;;;4.70;;
22282;SDS011;11310;51.528;21.204;2023-07-16T03:19:09;8.07;;;5.00;;
22282;SDS011;11310;51.528;21.204;2023-07-16T03:21:38;8.68;;;5.15;;
22282;SDS011;11310;51.528;21.204;2023-07-16T03:24:06;7.72;;;4.95;;
22282;SDS011;11310;51.528;21.204;2023-07-16T03:26:37;7.82;;;4.88;;
22282;SDS011;11310;51.528;21.204;2023-07-16T03:29:06;8.93;;;4.63;;
22282;SDS011;11310;51.528;21.204;2023-07-16T03:31:35;9.00;;;5.30;;
22282;SDS011;11310;51.528;21.204;2023-07-16T03:34:05;8.57;;;4.65;;
22282;SDS011;11310;51.528;21.204;2023-07-16T03:36:34;8.43;;;5.28;;
22282;SDS011;11310;51.528;21.204;2023-07-16T03:39:03;10.10;;;5.30;;
22282;SDS011;11310;51.528;21.204;2023-07-16T03:41:34;9.65;;;5.45;;
22282;SDS011;11310;51.528;21.204;2023-07-16T03:44:05;10.77;;;5.85;;
22282;SDS011;11310;51.528;21.204;2023-07-16T03:46:36;10.85;;;5.63;;
22282;SDS011;11310;51.528;21.204;2023-07-16T03:49:06;9.52;;;5.22;;
22282;SDS011;11310;51.528;21.204;2023-07-16T03:51:36;10.15;;;5.70;;
22282;SDS011;11310;51.528;21.204;2023-07-16T03:54:05;10.35;;;5.60;;
22282;SDS011;11310;51.528;21.204;2023-07-16T03:56:33;8.77;;;5.53;;
22282;SDS011;11310;51.528;21.204;2023-07-16T03:59:02;11.25;;;5.82;;
22282;SDS011;11310;51.528;21.204;2023-07-16T04:01:32;12.25;;;5.45;;
22282;SDS011;11310;51.528;21.204;2023-07-16T04:04:01;9.05;;;4.95;;
22282;SDS011;11310;51.528;21.204;2023-07-16T04:06:31;8.10;;;4.93;;
22282;SDS011;11310;51.528;21.204;2023-07-16T04:09:00;9.95;;;5.32;;
22282;SDS011;11310;51.528;21.204;2023-07-16T04:11:29;10.18;;;5.28;;
22282;SDS011;11310;51.528;21.204;2023-07-16T04:13:58;8.98;;;5.18;;
22282;SDS011;11310;51.528;21.204;2023-07-16T04:16:27;9.50;;;5.45;;
22282;SDS011;11310;51.528;21.204;2023-07-16T04:18:57;11.50;;;5.43;;
22282;SDS011;11310;51.528;21.204;2023-07-16T04:21:28;9.05;;;5.70;;
22282;SDS011;11310;51.528;21.204;2023-07-16T04:23:57;9.82;;;5.53;;
22282;SDS011;11310;51.528;21.204;2023-07-16T04:26:26;8.43;;;5.22;;
22282;SDS011;11310;51.528;21.204;2023-07-16T04:28:55;11.18;;;5.55;;
22282;SDS011;11310;51.528;21.204;2023-07-16T04:31:26;9.17;;;5.23;;
22282;SDS011;11310;51.528;21.204;2023-07-16T04:33:57;12.30;;;5.75;;
22282;SDS011;11310;51.528;21.204;2023-07-16T04:36:25;9.05;;;5.72;;
22282;SDS011;11310;51.528;21.204;2023-07-16T04:38:55;10.45;;;5.40;;
22282;SDS011;11310;51.528;21.204;2023-07-16T04:41:25;9.82;;;5.35;;
22282;SDS011;11310;51.528;21.204;2023-07-16T04:43:53;10.65;;;5.75;;
22282;SDS011;11310;51.528;21.204;2023-07-16T04:46:22;9.13;;;5.40;;
22282;SDS011;11310;51.528;21.204;2023-07-16T04:48:52;9.93;;;6.15;;
22282;SDS011;11310;51.528;21.204;2023-07-16T04:51:23;9.65;;;4.95;;
22282;SDS011;11310;51.528;21.204;2023-07-16T04:53:52;8.32;;;5.10;;
22282;SDS011;11310;51.528;21.204;2023-07-16T04:56:21;9.45;;;5.18;;
22282;SDS011;11310;51.528;21.204;2023-07-16T04:58:49;11.85;;;5.78;;
22282;SDS011;11310;51.528;21.204;2023-07-16T05:01:18;10.07;;;5.22;;
22282;SDS011;11310;51.528;21.204;2023-07-16T05:03:48;12.70;;;5.20;;
22282;SDS011;11310;51.528;21.204;2023-07-16T05:06:17;10.90;;;5.68;;
22282;SDS011;11310;51.528;21.204;2023-07-16T05:08:47;11.73;;;5.80;;
22282;SDS011;11310;51.528;21.204;2023-07-16T05:11:16;10.75;;;5.60;;
22282;SDS011;11310;51.528;21.204;2023-07-16T05:13:45;11.05;;;5.53;;
22282;SDS011;11310;51.528;21.204;2023-07-16T05:16:13;10.90;;;6.25;;
22282;SDS011;11310;51.528;21.204;2023-07-16T05:18:43;10.15;;;5.20;;
22282;SDS011;11310;51.528;21.204;2023-07-16T05:21:12;9.25;;;5.57;;
22282;SDS011;11310;51.528;21.204;2023-07-16T05:23:40;8.45;;;5.30;;
22282;SDS011;11310;51.528;21.204;2023-07-16T05:26:10;9.23;;;5.03;;
22282;SDS011;11310;51.528;21.204;2023-07-16T05:28:39;7.82;;;5.07;;
22282;SDS011;11310;51.528;21.204;2023-07-16T05:31:08;10.95;;;5.55;;
22282;SDS011;11310;51.528;21.204;2023-07-16T05:33:37;10.43;;;5.40;;
22282;SDS011;11310;51.528;21.204;2023-07-16T05:36:06;10.00;;;5.65;;
22282;SDS011;11310;51.528;21.204;2023-07-16T05:38:35;9.90;;;5.35;;
22282;SDS011;11310;51.528;21.204;2023-07-16T05:41:04;9.57;;;5.55;;
22282;SDS011;11310;51.528;21.204;2023-07-16T05:43:35;10.10;;;5.57;;
22282;SDS011;11310;51.528;21.204;2023-07-16T05:46:04;8.82;;;5.07;;
22282;SDS011;11310;51.528;21.204;2023-07-16T05:48:34;8.77;;;5.07;;
22282;SDS011;11310;51.528;21.204;2023-07-16T05:51:02;8.70;;;5.13;;
22282;SDS011;11310;51.528;21.204;2023-07-16T05:53:31;10.32;;;5.38;;
22282;SDS011;11310;51.528;21.204;2023-07-16T05:56:00;8.98;;;4.97;;
22282;SDS011;11310;51.528;21.204;2023-07-16T05:58:30;8.80;;;4.95;;
22282;SDS011;11310;51.528;21.204;2023-07-16T06:01:00;12.10;;;5.38;;
22282;SDS011;11310;51.528;21.204;2023-07-16T06:03:29;13.50;;;4.75;;
22282;SDS011;11310;51.528;21.204;2023-07-16T06:05:58;7.97;;;4.88;;
22282;SDS011;11310;51.528;21.204;2023-07-16T06:08:26;8.30;;;5.18;;
22282;SDS011;11310;51.528;21.204;2023-07-16T06:10:55;8.77;;;4.60;;
22282;SDS011;11310;51.528;21.204;2023-07-16T06:13:25;9.70;;;4.57;;
22282;SDS011;11310;51.528;21.204;2023-07-16T06:15:53;9.95;;;4.50;;
22282;SDS011;11310;51.528;21.204;2023-07-16T06:18:24;8.50;;;4.90;;
22282;SDS011;11310;51.528;21.204;2023-07-16T06:20:52;9.02;;;4.85;;
22282;SDS011;11310;51.528;21.204;2023-07-16T06:23:22;8.52;;;5.07;;
22282;SDS011;11310;51.528;21.204;2023-07-16T06:25:53;9.05;;;5.00;;
22282;SDS011;11310;51.528;21.204;2023-07-16T06:28:22;10.55;;;5.00;;
22282;SDS011;11310;51.528;21.204;2023-07-16T06:30:51;10.13;;;5.30;;
22282;SDS011;11310;51.528;21.204;2023-07-16T06:33:20;9.95;;;4.93;;
22282;SDS011;11310;51.528;21.204;2023-07-16T06:35:50;9.00;;;4.70;;
22282;SDS011;11310;51.528;21.204;2023-07-16T06:38:20;8.52;;;5.07;;
22282;SDS011;11310;51.528;21.204;2023-07-16T06:40:49;7.68;;;4.55;;
22282;SDS011;11310;51.528;21.204;2023-07-16T06:43:20;7.82;;;4.93;;
22282;SDS011;11310;51.528;21.204;2023-07-16T06:45:49;7.80;;;4.30;;
22282;SDS011;11310;51.528;21.204;2023-07-16T06:48:18;7.43;;;4.78;;
22282;SDS011;11310;51.528;21.204;2023-07-16T06:50:47;9.35;;;4.70;;
22282;SDS011;11310;51.528;21.204;2023-07-16T06:53:19;7.53;;;4.65;;
22282;SDS011;11310;51.528;21.204;2023-07-16T06:55:48;10.25;;;5.13;;
22282;SDS011;11310;51.528;21.204;2023-07-16T06:58:17;9.40;;;5.47;;
22282;SDS011;11310;51.528;21.204;2023-07-16T07:00:46;9.63;;;4.85;;
22282;SDS011;11310;51.528;21.204;2023-07-16T07:03:15;10.20;;;5.07;;
22282;SDS011;11310;51.528;21.204;2023-07-16T07:05:44;8.60;;;4.55;;
22282;SDS011;11310;51.528;21.204;2023-07-16T07:08:13;9.73;;;4.78;;
22282;SDS011;11310;51.528;21.204;2023-07-16T07:10:43;8.93;;;4.78;;
22282;SDS011;11310;51.528;21.204;2023-07-16T07:13:13;9.40;;;5.07;;
22282;SDS011;11310;51.528;21.204;2023-07-16T07:15:42;8.05;;;4.75;;
22282;SDS011;11310;51.528;21.204;2023-07-16T07:18:11;10.35;;;5.22;;
22282;SDS011;11310;51.528;21.204;2023-07-16T07:20:39;7.28;;;4.55;;
22282;SDS011;11310;51.528;21.204;2023-07-16T07:23:09;8.15;;;5.40;;
22282;SDS011;11310;51.528;21.204;2023-07-16T07:25:38;8.05;;;5.20;;
22282;SDS011;11310;51.528;21.204;2023-07-16T07:28:08;8.55;;;5.38;;
22282;SDS011;11310;51.528;21.204;2023-07-16T07:30:37;9.07;;;4.72;;
22282;SDS011;11310;51.528;21.204;2023-07-16T07:33:06;12.45;;;5.30;;
22282;SDS011;11310;51.528;21.204;2023-07-16T07:35:35;10.10;;;5.30;;
22282;SDS011;11310;51.528;21.204;2023-07-16T07:38:04;8.88;;;4.90;;
22282;SDS011;11310;51.528;21.204;2023-07-16T07:40:32;8.20;;;5.60;;
22282;SDS011;11310;51.528;21.204;2023-07-16T07:43:02;8.05;;;5.13;;
22282;SDS011;11310;51.528;21.204;2023-07-16T07:45:32;11.93;;;5.43;;
22282;SDS011;11310;51.528;21.204;2023-07-16T07:48:01;8.25;;;4.35;;
22282;SDS011;11310;51.528;21.204;2023-07-16T07:50:30;8.40;;;5.05;;
22282;SDS011;11310;51.528;21.204;2023-07-16T07:52:59;7.55;;;4.68;;
22282;SDS011;11310;51.528;21.204;2023-07-16T07:55:28;8.18;;;5.05;;
22282;SDS011;11310;51.528;21.204;2023-07-16T07:57:57;7.82;;;4.40;;
22282;SDS011;11310;51.528;21.204;2023-07-16T08:00:26;8.98;;;4.90;;
22282;SDS011;11310;51.528;21.204;2023-07-16T08:02:56;7.60;;;4.63;;
22282;SDS011;11310;51.528;21.204;2023-07-16T08:05:25;8.20;;;4.63;;
22282;SDS011;11310;51.528;21.204;2023-07-16T08:07:54;8.27;;;4.65;;
22282;SDS011;11310;51.528;21.204;2023-07-16T08:10:24;10.75;;;4.95;;
22282;SDS011;11310;51.528;21.204;2023-07-16T08:12:53;7.88;;;5.07;;
22282;SDS011;11310;51.528;21.204;2023-07-16T08:15:21;7.45;;;4.57;;
22282;SDS011;11310;51.528;21.204;2023-07-16T08:17:50;9.60;;;4.57;;
22282;SDS011;11310;51.528;21.204;2023-07-16T08:20:20;8.32;;;4.45;;
22282;SDS011;11310;51.528;21.204;2023-07-16T08:22:49;8.38;;;4.47;;
22282;SDS011;11310;51.528;21.204;2023-07-16T08:25:18;8.13;;;4.30;;
22282;SDS011;11310;51.528;21.204;2023-07-16T08:27:47;9.10;;;4.78;;
22282;SDS011;11310;51.528;21.204;2023-07-16T08:30:16;8.00;;;4.28;;
22282;SDS011;11310;51.528;21.204;2023-07-16T08:32:45;7.63;;;4.45;;
22282;SDS011;11310;51.528;21.204;2023-07-16T08:35:15;10.70;;;4.38;;
22282;SDS011;11310;51.528;21.204;2023-07-16T08:37:48;7.00;;;4.35;;
22282;SDS011;11310;51.528;21.204;2023-07-16T08:40:18;7.13;;;3.88;;
22282;SDS011;11310;51.528;21.204;2023-07-16T08:42:48;6.82;;;4.03;;
22282;SDS011;11310;51.528;21.204;2023-07-16T08:45:17;6.70;;;3.55;;
22282;SDS011;11310;51.528;21.204;2023-07-16T08:47:50;7.07;;;3.72;;
22282;SDS011;11310;51.528;21.204;2023-07-16T08:50:20;6.18;;;3.55;;
22282;SDS011;11310;51.528;21.204;2023-07-16T08:52:52;8.05;;;4.20;;
22282;SDS011;11310;51.528;21.204;2023-07-16T08:55:22;6.68;;;3.55;;
22282;SDS011;11310;51.528;21.204;2023-07-16T08:57:51;8.55;;;4.13;;
22282;SDS011;11310;51.528;21.204;2023-07-16T09:00:21;5.90;;;4.10;;
22282;SDS011;11310;51.528;21.204;2023-07-16T09:02:53;6.22;;;3.70;;
22282;SDS011;11310;51.528;21.204;2023-07-16T09:05:22;7.22;;;3.60;;
22282;SDS011;11310;51.528;21.204;2023-07-16T09:08:07;8.93;;;3.75;;
22282;SDS011;11310;51.528;21.204;2023-07-16T09:10:36;6.77;;;3.87;;
22282;SDS011;11310;51.528;21.204;2023-07-16T09:13:05;7.05;;;3.97;;
22282;SDS011;11310;51.528;21.204;2023-07-16T09:15:34;6.07;;;3.60;;
22282;SDS011;11310;51.528;21.204;2023-07-16T09:18:04;5.80;;;3.28;;
22282;SDS011;11310;51.528;21.204;2023-07-16T09:20:33;3.90;;;2.90;;
22282;SDS011;11310;51.528;21.204;2023-07-16T09:23:02;5.45;;;3.30;;
22282;SDS011;11310;51.528;21.204;2023-07-16T09:25:34;5.07;;;3.45;;
22282;SDS011;11310;51.528;21.204;2023-07-16T09:28:03;6.28;;;3.60;;
22282;SDS011;11310;51.528;21.204;2023-07-16T09:30:33;4.32;;;3.13;;
22282;SDS011;11310;51.528;21.204;2023-07-16T09:33:13;5.00;;;3.05;;
22282;SDS011;11310;51.528;21.204;2023-07-16T09:35:47;6.70;;;3.42;;
22282;SDS011;11310;51.528;21.204;2023-07-16T09:40:47;4.25;;;2.78;;
22282;SDS011;11310;51.528;21.204;2023-07-16T09:43:16;4.95;;;3.20;;
22282;SDS011;11310;51.528;21.204;2023-07-16T09:45:46;4.22;;;3.00;;
22282;SDS011;11310;51.528;21.204;2023-07-16T09:48:15;5.85;;;3.15;;
22282;SDS011;11310;51.528;21.204;2023-07-16T09:50:45;3.50;;;2.53;;
22282;SDS011;11310;51.528;21.204;2023-07-16T09:53:20;4.72;;;2.83;;
22282;SDS011;11310;51.528;21.204;2023-07-16T09:55:55;4.45;;;2.83;;
22282;SDS011;11310;51.528;21.204;2023-07-16T09:58:25;4.13;;;2.50;;
22282;SDS011;11310;51.528;21.204;2023-07-16T10:00:55;4.45;;;2.17;;
22282;SDS011;11310;51.528;21.204;2023-07-16T10:03:27;3.10;;;2.45;;
22282;SDS011;11310;51.528;21.204;2023-07-16T10:06:05;3.83;;;2.53;;
22282;SDS011;11310;51.528;21.204;2023-07-16T10:08:36;5.47;;;2.55;;
22282;SDS011;11310;51.528;21.204;2023-07-16T10:11:15;6.53;;;3.05;;
22282;SDS011;11310;51.528;21.204;2023-07-16T10:13:49;4.80;;;2.40;;
22282;SDS011;11310;51.528;21.204;2023-07-16T10:16:21;3.50;;;2.45;;
22282;SDS011;11310;51.528;21.204;2023-07-16T10:18:52;4.60;;;2.55;;
22282;SDS011;11310;51.528;21.204;2023-07-16T10:21:22;5.30;;;2.92;;
22282;SDS011;11310;51.528;21.204;2023-07-16T10:23:56;5.05;;;2.65;;
22282;SDS011;11310;51.528;21.204;2023-07-16T10:26:28;6.40;;;2.70;;
22282;SDS011;11310;51.528;21.204;2023-07-16T10:28:57;5.78;;;2.45;;
22282;SDS011;11310;51.528;21.204;2023-07-16T10:31:26;5.82;;;2.50;;
22282;SDS011;11310;51.528;21.204;2023-07-16T10:33:57;6.15;;;2.88;;
22282;SDS011;11310;51.528;21.204;2023-07-16T10:36:29;3.70;;;2.42;;
22282;SDS011;11310;51.528;21.204;2023-07-16T10:39:02;7.90;;;2.63;;
22282;SDS011;11310;51.528;21.204;2023-07-16T10:41:33;6.47;;;3.08;;
22282;SDS011;11310;51.528;21.204;2023-07-16T10:44:03;5.72;;;2.80;;
22282;SDS011;11310;51.528;21.204;2023-07-16T10:46:32;9.55;;;2.80;;
22282;SDS011;11310;51.528;21.204;2023-07-16T10:49:01;7.05;;;2.97;;
22282;SDS011;11310;51.528;21.204;2023-07-16T10:51:30;6.38;;;3.05;;
22282;SDS011;11310;51.528;21.204;2023-07-16T10:53:59;7.22;;;3.00;;
22282;SDS011;11310;51.528;21.204;2023-07-16T10:56:29;5.47;;;3.53;;
22282;SDS011;11310;51.528;21.204;2023-07-16T10:59:02;11.45;;;3.47;;
22282;SDS011;11310;51.528;21.204;2023-07-16T11:01:32;7.97;;;3.17;;
22282;SDS011;11310;51.528;21.204;2023-07-16T11:04:01;5.00;;;3.20;;
22282;SDS011;11310;51.528;21.204;2023-07-16T11:06:34;6.55;;;3.53;;
22282;SDS011;11310;51.528;21.204;2023-07-16T11:09:06;7.55;;;3.35;;
22282;SDS011;11310;51.528;21.204;2023-07-16T11:11:35;9.48;;;3.40;;
22282;SDS011;11310;51.528;21.204;2023-07-16T11:14:06;6.18;;;3.95;;
22282;SDS011;11310;51.528;21.204;2023-07-16T11:16:35;5.90;;;3.47;;
22282;SDS011;11310;51.528;21.204;2023-07-16T11:19:05;6.07;;;3.75;;
22282;SDS011;11310;51.528;21.204;2023-07-16T11:21:34;6.65;;;3.85;;
22282;SDS011;11310;51.528;21.204;2023-07-16T11:24:07;5.63;;;3.70;;
22282;SDS011;11310;51.528;21.204;2023-07-16T11:26:36;6.18;;;3.75;;
22282;SDS011;11310;51.528;21.204;2023-07-16T11:29:13;6.50;;;3.72;;
22282;SDS011;11310;51.528;21.204;2023-07-16T11:31:42;6.57;;;4.20;;
22282;SDS011;11310;51.528;21.204;2023-07-16T11:34:12;7.28;;;3.67;;
22282;SDS011;11310;51.528;21.204;2023-07-16T11:36:41;7.85;;;3.85;;
22282;SDS011;11310;51.528;21.204;2023-07-16T11:39:10;8.85;;;3.50;;
22282;SDS011;11310;51.528;21.204;2023-07-16T11:41:39;6.50;;;3.70;;
22282;SDS011;11310;51.528;21.204;2023-07-16T11:44:08;7.63;;;3.50;;
22282;SDS011;11310;51.528;21.204;2023-07-16T11:46:38;6.03;;;3.47;;
22282;SDS011;11310;51.528;21.204;2023-07-16T11:49:06;12.00;;;4.07;;
22282;SDS011;11310;51.528;21.204;2023-07-16T11:51:35;8.32;;;3.80;;
22282;SDS011;11310;51.528;21.204;2023-07-16T11:54:03;8.63;;;3.67;;
22282;SDS011;11310;51.528;21.204;2023-07-16T11:56:32;7.35;;;3.65;;
22282;SDS011;11310;51.528;21.204;2023-07-16T11:59:00;6.45;;;3.50;;
22282;SDS011;11310;51.528;21.204;2023-07-16T12:01:29;6.82;;;3.50;;
22282;SDS011;11310;51.528;21.204;2023-07-16T12:04:00;5.95;;;3.53;;
22282;SDS011;11310;51.528;21.204;2023-07-16T12:06:29;5.25;;;3.47;;
22282;SDS011;11310;51.528;21.204;2023-07-16T12:08:58;7.82;;;4.20;;
22282;SDS011;11310;51.528;21.204;2023-07-16T12:11:26;8.23;;;4.20;;
22282;SDS011;11310;51.528;21.204;2023-07-16T12:13:55;8.18;;;4.05;;
22282;SDS011;11310;51.528;21.204;2023-07-16T12:16:24;7.32;;;3.60;;
22282;SDS011;11310;51.528;21.204;2023-07-16T12:18:52;6.25;;;3.97;;
22282;SDS011;11310;51.528;21.204;2023-07-16T12:21:23;6.57;;;4.00;;
22282;SDS011;11310;51.528;21.204;2023-07-16T12:23:51;6.63;;;4.13;;
22282;SDS011;11310;51.528;21.204;2023-07-16T12:26:20;6.45;;;3.88;;
22282;SDS011;11310;51.528;21.204;2023-07-16T12:28:49;6.30;;;3.67;;
22282;SDS011;11310;51.528;21.204;2023-07-16T12:31:17;6.03;;;4.00;;
22282;SDS011;11310;51.528;21.204;2023-07-16T12:33:47;5.45;;;3.88;;
22282;SDS011;11310;51.528;21.204;2023-07-16T12:36:19;7.00;;;3.85;;
22282;SDS011;11310;51.528;21.204;2023-07-16T12:38:48;6.50;;;4.07;;
22282;SDS011;11310;51.528;21.204;2023-07-16T12:41:17;10.60;;;3.90;;
22282;SDS011;11310;51.528;21.204;2023-07-16T12:43:46;8.02;;;3.97;;
22282;SDS011;11310;51.528;21.204;2023-07-16T12:46:15;5.78;;;3.88;;
22282;SDS011;11310;51.528;21.204;2023-07-16T12:48:44;8.10;;;3.85;;
22282;SDS011;11310;51.528;21.204;2023-07-16T12:51:13;8.45;;;3.90;;
22282;SDS011;11310;51.528;21.204;2023-07-16T12:53:41;6.03;;;3.95;;
22282;SDS011;11310;51.528;21.204;2023-07-16T12:56:12;11.90;;;4.15;;
22282;SDS011;11310;51.528;21.204;2023-07-16T12:58:41;9.30;;;4.05;;
22282;SDS011;11310;51.528;21.204;2023-07-16T13:01:09;8.10;;;4.43;;
22282;SDS011;11310;51.528;21.204;2023-07-16T13:03:38;6.72;;;3.60;;
22282;SDS011;11310;51.528;21.204;2023-07-16T13:06:07;5.60;;;3.70;;
22282;SDS011;11310;51.528;21.204;2023-07-16T13:08:36;7.97;;;3.90;;
22282;SDS011;11310;51.528;21.204;2023-07-16T13:11:04;4.50;;;3.20;;
22282;SDS011;11310;51.528;21.204;2023-07-16T13:13:35;5.95;;;3.58;;
22282;SDS011;11310;51.528;21.204;2023-07-16T13:16:03;8.95;;;3.50;;
22282;SDS011;11310;51.528;21.204;2023-07-16T13:18:32;7.00;;;3.35;;
22282;SDS011;11310;51.528;21.204;2023-07-16T13:21:01;6.95;;;3.80;;
22282;SDS011;11310;51.528;21.204;2023-07-16T13:23:30;7.07;;;3.72;;
22282;SDS011;11310;51.528;21.204;2023-07-16T13:25:59;9.25;;;3.60;;
22282;SDS011;11310;51.528;21.204;2023-07-16T13:28:27;5.03;;;3.33;;
22282;SDS011;11310;51.528;21.204;2023-07-16T13:30:59;5.68;;;3.63;;
22282;SDS011;11310;51.528;21.204;2023-07-16T13:33:28;6.50;;;3.42;;
22282;SDS011;11310;51.528;21.204;2023-07-16T13:35:56;7.22;;;3.13;;
22282;SDS011;11310;51.528;21.204;2023-07-16T13:38:28;7.90;;;3.30;;
22282;SDS011;11310;51.528;21.204;2023-07-16T13:40:58;6.70;;;3.50;;
22282;SDS011;11310;51.528;21.204;2023-07-16T13:43:27;6.00;;;3.08;;
22282;SDS011;11310;51.528;21.204;2023-07-16T13:45:56;6.65;;;3.28;;
22282;SDS011;11310;51.528;21.204;2023-07-16T13:48:26;8.18;;;3.40;;
22282;SDS011;11310;51.528;21.204;2023-07-16T13:51:03;6.80;;;3.38;;
22282;SDS011;11310;51.528;21.204;2023-07-16T13:53:32;6.80;;;3.15;;
22282;SDS011;11310;51.528;21.204;2023-07-16T13:56:01;5.75;;;3.20;;
22282;SDS011;11310;51.528;21.204;2023-07-16T13:58:29;8.85;;;3.20;;
22282;SDS011;11310;51.528;21.204;2023-07-16T14:00:59;4.72;;;2.83;;
22282;SDS011;11310;51.528;21.204;2023-07-16T14:03:29;9.27;;;3.75;;
22282;SDS011;11310;51.528;21.204;2023-07-16T14:05:58;7.22;;;3.08;;
22282;SDS011;11310;51.528;21.204;2023-07-16T14:08:27;13.45;;;3.60;;
22282;SDS011;11310;51.528;21.204;2023-07-16T14:10:56;5.45;;;2.85;;
22282;SDS011;11310;51.528;21.204;2023-07-16T14:13:26;6.10;;;2.85;;
22282;SDS011;11310;51.528;21.204;2023-07-16T14:15:56;7.05;;;3.25;;
22282;SDS011;11310;51.528;21.204;2023-07-16T14:18:25;4.63;;;2.70;;
22282;SDS011;11310;51.528;21.204;2023-07-16T14:20:55;5.43;;;2.90;;
22282;SDS011;11310;51.528;21.204;2023-07-16T14:23:24;10.73;;;2.88;;
22282;SDS011;11310;51.528;21.204;2023-07-16T14:25:53;9.38;;;3.28;;
22282;SDS011;11310;51.528;21.204;2023-07-16T14:28:22;5.82;;;2.80;;
22282;SDS011;11310;51.528;21.204;2023-07-16T14:30:51;4.07;;;2.53;;
22282;SDS011;11310;51.528;21.204;2023-07-16T14:33:20;4.93;;;3.03;;
22282;SDS011;11310;51.528;21.204;2023-07-16T14:35:50;4.13;;;2.95;;
22282;SDS011;11310;51.528;21.204;2023-07-16T14:38:20;10.93;;;3.05;;
22282;SDS011;11310;51.528;21.204;2023-07-16T14:40:48;5.85;;;3.13;;
22282;SDS011;11310;51.528;21.204;2023-07-16T14:43:18;4.97;;;2.78;;
22282;SDS011;11310;51.528;21.204;2023-07-16T14:45:47;5.38;;;2.70;;
22282;SDS011;11310;51.528;21.204;2023-07-16T14:48:16;4.95;;;3.00;;
22282;SDS011;11310;51.528;21.204;2023-07-16T14:50:48;7.10;;;2.92;;